KDEH Airport (Decorah Muni) Information

FAA: DEH - ICAO: KDEH

KDEH Airport Location

State Iowa
County Winneshiek
City Decorah
KDEH Airport is 2 miles southeast of Decorah, IA.
Latitude 43-16-31.8000N
Longitude 091-44-21.8000W
Elevation 1,157ft

KDEH Airport METARs

METAR KDEH 181415Z AUTO 18008G13KT 10SM OVC100 M03/M03 A2971 RMK AO2
Altimeter 29.71"
Temperature -3.0°C (26.6°F)
Wind 180° at 8KT with gusts to 13KT
Clouds overcast at 10,000ft
Visibility 10.0mi
Time observed: 2022-01-18T14:15:00Z

KDEH Airport Details

Status Operational
Activation March 1963
Ownership Public
Usage Public
Chart CHICAGO
ATC on-site No
Beacon schedule sunset-sunrise
Beacon color clear green

KDEH Airport Contacts

Owner CITY OF DECORAH
Owner address 400 CLAYBORNE DR. PO BOX 138, DECORAH, IA 52101
Owner phone 563-382-3651
Manager DANIEL KELLEY
Manager address 17751 BADGER AVE, CRESCENT, IA 51526
Manager phone 713-703-8478

KDEH Airport (Decorah Muni) Radio Frequencies

KDEH (Airport) Radio Frequencies

UNICOM 122.8
Common traffic advisory frequency (CTAF) 122.8